createdAt,value
2023-03-07T00:01:26.824Z,57.56
2023-03-07T00:03:55.585Z,57.04
2023-03-07T00:06:24.317Z,56.77
2023-03-07T00:08:52.884Z,57.42
2023-03-07T00:11:21.661Z,57.80
2023-03-07T00:13:50.155Z,57.69
2023-03-07T00:16:21.285Z,57.12
2023-03-07T00:18:51.411Z,57.13
2023-03-07T00:21:22.035Z,56.60
2023-03-07T00:23:53.411Z,57.07
2023-03-07T00:26:24.695Z,56.46
2023-03-07T00:28:55.178Z,56.72
2023-03-07T00:31:24.504Z,56.36
2023-03-07T00:33:54.313Z,56.30
2023-03-07T00:36:24.249Z,55.98
2023-03-07T00:38:53.199Z,55.79
2023-03-07T00:41:23.586Z,55.66
2023-03-07T00:43:52.542Z,56.11
2023-03-07T00:46:22.312Z,56.83
2023-03-07T00:48:51.261Z,56.91
2023-03-07T00:51:23.384Z,56.28
2023-03-07T00:53:52.125Z,57.20
2023-03-07T00:56:21.821Z,57.47
2023-03-07T00:58:50.386Z,57.14
2023-03-07T01:01:22.130Z,57.29
2023-03-07T01:03:53.838Z,57.47
2023-03-07T01:06:26.101Z,57.22
2023-03-07T01:08:54.919Z,57.41
2023-03-07T01:11:23.406Z,57.94
2023-03-07T01:13:51.836Z,58.06
2023-03-07T01:16:23.106Z,57.38
2023-03-07T01:18:53.443Z,57.36
2023-03-07T01:21:25.973Z,58.09
2023-03-07T01:23:54.896Z,57.88
2023-03-07T01:26:26.577Z,58.66
2023-03-07T01:28:56.677Z,58.43
2023-03-07T01:31:25.776Z,58.21
2023-03-07T01:33:55.847Z,58.45
2023-03-07T01:36:30.148Z,58.68
2023-03-07T01:39:01.136Z,59.34
2023-03-07T01:41:32.468Z,59.40
2023-03-07T01:44:02.530Z,59.37
2023-03-07T01:46:53.224Z,59.29
2023-03-07T01:49:26.234Z,59.09
2023-03-07T01:52:02.748Z,59.08
2023-03-07T01:54:33.644Z,59.36
2023-03-07T01:57:03.707Z,59.57
2023-03-07T01:59:35.802Z,59.83
2023-03-07T02:02:08.104Z,59.74
2023-03-07T02:04:41.170Z,60.14
2023-03-07T02:07:12.574Z,59.82
2023-03-07T02:09:42.090Z,60.08
2023-03-07T02:12:11.693Z,59.71
2023-03-07T02:14:40.064Z,59.84
2023-03-07T02:17:08.468Z,59.65
2023-03-07T02:19:54.993Z,61.00
2023-03-07T02:22:25.298Z,61.16
2023-03-07T02:24:57.605Z,60.74
2023-03-07T02:27:31.156Z,60.92
2023-03-07T02:29:59.473Z,61.90
2023-03-07T02:32:27.903Z,61.89
2023-03-07T02:34:56.228Z,61.42
2023-03-07T02:37:30.513Z,61.71
2023-03-07T02:40:02.141Z,61.66
2023-03-07T02:42:34.887Z,62.07
2023-03-07T02:45:06.374Z,61.50
2023-03-07T02:47:34.681Z,61.00
2023-03-07T02:50:03.099Z,61.36
2023-03-07T02:52:31.444Z,61.48
2023-03-07T02:54:59.815Z,61.78
2023-03-07T02:57:28.251Z,62.39
2023-03-07T02:59:58.010Z,61.99
2023-03-07T03:02:26.316Z,62.04
2023-03-07T03:04:54.658Z,63.00
2023-03-07T03:07:23.011Z,62.54
2023-03-07T03:09:51.263Z,62.58
2023-03-07T03:12:19.733Z,62.67
2023-03-07T03:14:48.460Z,62.28
2023-03-07T03:17:18.799Z,63.64
2023-03-07T03:19:47.100Z,63.10
2023-03-07T03:22:15.429Z,63.88
2023-03-07T03:24:44.661Z,64.53
2023-03-07T03:27:13.318Z,64.30
2023-03-07T03:29:41.633Z,64.72
2023-03-07T03:32:10.195Z,64.78
2023-03-07T03:34:40.098Z,64.73
2023-03-07T03:37:08.833Z,64.17
2023-03-07T03:39:37.801Z,64.09
2023-03-07T03:42:06.359Z,65.02
2023-03-07T03:44:34.747Z,63.90
2023-03-07T03:47:04.296Z,64.72
2023-03-07T03:49:33.275Z,64.66
2023-03-07T03:52:02.964Z,64.47
2023-03-07T03:54:31.251Z,63.32
2023-03-07T03:56:59.597Z,64.33
2023-03-07T03:59:28.104Z,64.22
2023-03-07T04:01:56.545Z,64.52
2023-03-07T04:04:25.801Z,64.16
2023-03-07T04:06:54.537Z,64.32
2023-03-07T04:09:24.328Z,64.43
2023-03-07T04:11:52.782Z,64.66
2023-03-07T04:14:21.147Z,64.65
2023-03-07T04:16:49.562Z,64.95
2023-03-07T04:19:18.213Z,63.71
2023-03-07T04:21:46.561Z,64.07
2023-03-07T04:24:14.944Z,64.75
2023-03-07T04:26:45.039Z,64.21
2023-03-07T04:29:13.346Z,64.75
2023-03-07T04:31:41.790Z,64.78
2023-03-07T04:34:10.542Z,63.67
2023-03-07T04:36:39.410Z,64.65
2023-03-07T04:39:07.786Z,64.81
2023-03-07T04:41:36.054Z,64.38
2023-03-07T04:44:06.041Z,64.41
2023-03-07T04:46:34.493Z,64.05
2023-03-07T04:49:02.850Z,64.29
2023-03-07T04:51:31.147Z,64.85
2023-03-07T04:53:59.459Z,64.69
2023-03-07T04:56:28.055Z,64.54
2023-03-07T04:58:56.370Z,64.43
2023-03-07T05:01:26.112Z,64.51
2023-03-07T05:03:54.596Z,64.28
2023-03-07T05:06:23.082Z,64.24
2023-03-07T05:08:51.605Z,63.72
2023-03-07T05:11:19.945Z,64.71
2023-03-07T05:13:48.313Z,65.01
2023-03-07T05:16:17.876Z,64.48
2023-03-07T05:18:47.627Z,64.54
2023-03-07T05:21:15.965Z,64.32
2023-03-07T05:23:44.376Z,64.16
2023-03-07T05:26:12.975Z,63.93
2023-03-07T05:28:41.616Z,64.53
2023-03-07T05:31:10.256Z,64.24
2023-03-07T05:33:38.599Z,64.52
2023-03-07T05:36:09.215Z,64.49
2023-03-07T05:38:37.606Z,64.86
2023-03-07T05:41:06.073Z,65.18
2023-03-07T05:43:34.690Z,65.04
2023-03-07T05:46:03.071Z,64.58
2023-03-07T05:48:31.440Z,64.88
2023-03-07T05:51:01.284Z,64.58
2023-03-07T05:53:31.015Z,64.64
2023-03-07T05:55:59.307Z,64.02
2023-03-07T05:58:27.660Z,64.42
2023-03-07T06:00:56.210Z,64.25
2023-03-07T06:03:24.598Z,63.87
2023-03-07T06:05:52.944Z,63.26
2023-03-07T06:08:21.396Z,63.55
2023-03-07T06:10:52.979Z,63.21
2023-03-07T06:13:22.594Z,63.70
2023-03-07T06:15:52.030Z,63.58
2023-03-07T06:18:20.837Z,63.15
2023-03-07T06:20:58.050Z,63.27
2023-03-07T06:23:26.807Z,63.37
2023-03-07T06:25:56.764Z,63.51
2023-03-07T06:28:25.683Z,63.70
2023-03-07T06:30:54.250Z,63.70
2023-03-07T06:33:22.823Z,63.80
2023-03-07T06:35:51.457Z,63.76
2023-03-07T06:38:19.876Z,63.79
2023-03-07T06:40:58.178Z,63.81
2023-03-07T06:43:26.552Z,63.46
2023-03-07T06:45:55.617Z,63.85
2023-03-07T06:48:24.384Z,64.04
2023-03-07T06:50:52.729Z,64.11
2023-03-07T06:53:21.475Z,63.97
2023-03-07T06:55:51.024Z,63.71
2023-03-07T06:58:20.736Z,63.77
2023-03-07T07:00:49.186Z,63.85
2023-03-07T07:03:19.999Z,63.71
2023-03-07T07:05:49.038Z,64.14
2023-03-07T07:08:17.510Z,63.97
2023-03-07T07:10:46.086Z,63.60
2023-03-07T07:13:15.278Z,63.48
2023-03-07T07:15:45.065Z,63.44
2023-03-07T07:18:14.722Z,63.65
2023-03-07T07:20:43.579Z,63.61
2023-03-07T07:23:11.990Z,63.36
2023-03-07T07:25:40.804Z,63.27
2023-03-07T07:28:09.068Z,63.47
2023-03-07T07:30:37.396Z,63.56
2023-03-07T07:33:07.321Z,63.31
2023-03-07T07:35:35.895Z,63.27
2023-03-07T07:38:04.660Z,63.48
2023-03-07T07:40:32.976Z,63.46
2023-03-07T07:43:01.288Z,63.24
2023-03-07T07:45:29.687Z,63.27
2023-03-07T07:47:57.969Z,63.05
2023-03-07T07:50:28.044Z,63.22
2023-03-07T07:52:56.316Z,63.18
2023-03-07T07:55:25.667Z,62.94
2023-03-07T07:57:54.076Z,63.05
2023-03-07T08:00:23.056Z,62.65
2023-03-07T08:02:52.432Z,62.55
2023-03-07T08:05:23.130Z,62.51
2023-03-07T08:07:52.974Z,62.72
2023-03-07T08:10:21.904Z,62.31
2023-03-07T08:12:52.309Z,62.18
2023-03-07T08:15:22.037Z,62.49
2023-03-07T08:17:51.572Z,62.37
2023-03-07T08:20:22.603Z,62.50
2023-03-07T08:22:53.123Z,62.36
2023-03-07T08:25:23.895Z,62.20
2023-03-07T08:27:55.322Z,61.67
2023-03-07T08:30:24.644Z,61.88
2023-03-07T08:32:53.520Z,61.13
2023-03-07T08:35:23.111Z,61.38
2023-03-07T08:37:55.812Z,61.34
2023-03-07T08:40:26.248Z,61.08
2023-03-07T08:42:55.400Z,60.30
2023-03-07T08:45:24.436Z,61.21
2023-03-07T08:47:54.843Z,60.89
2023-03-07T08:50:23.870Z,60.91
2023-03-07T08:52:53.638Z,60.52
2023-03-07T08:55:21.981Z,60.74
2023-03-07T08:57:50.630Z,60.76
2023-03-07T09:00:19.919Z,61.14
2023-03-07T09:02:48.195Z,60.70
2023-03-07T09:05:16.625Z,61.33
2023-03-07T09:07:44.943Z,61.92
2023-03-07T09:10:14.784Z,61.83
2023-03-07T09:12:43.248Z,62.13
2023-03-07T09:15:12.437Z,62.30
2023-03-07T09:17:40.875Z,62.28
2023-03-07T09:20:11.931Z,62.74
2023-03-07T09:22:40.269Z,62.72
2023-03-07T09:25:09.171Z,62.65
2023-03-07T09:27:39.327Z,64.08
2023-03-07T09:30:09.244Z,64.50
2023-03-07T09:32:37.919Z,64.89
2023-03-07T09:35:07.108Z,63.70
2023-03-07T09:37:35.428Z,63.69
2023-03-07T09:40:05.460Z,63.35
2023-03-07T09:42:43.069Z,62.75
2023-03-07T09:45:30.828Z,63.01
2023-03-07T09:48:33.932Z,62.54
2023-03-07T09:51:11.828Z,62.98
2023-03-07T09:53:44.571Z,63.21
2023-03-07T09:56:16.750Z,62.99
2023-03-07T09:58:51.408Z,62.23
2023-03-07T10:01:25.558Z,61.74
2023-03-07T10:04:01.289Z,61.15
2023-03-07T10:06:33.966Z,60.98
2023-03-07T10:09:05.415Z,60.17
2023-03-07T10:11:54.471Z,60.95
2023-03-07T10:14:38.192Z,60.56
2023-03-07T10:17:16.640Z,60.84
2023-03-07T10:19:50.706Z,60.76
2023-03-07T10:22:25.821Z,60.60
2023-03-07T10:25:08.149Z,60.59
2023-03-07T10:27:36.443Z,59.05
2023-03-07T10:30:15.898Z,59.75
2023-03-07T10:32:47.166Z,60.07
2023-03-07T10:35:21.116Z,59.63
2023-03-07T10:37:52.030Z,59.16
2023-03-07T10:40:26.568Z,59.47
2023-03-07T10:42:55.908Z,59.73
2023-03-07T10:45:28.838Z,58.77
2023-03-07T10:47:57.314Z,58.68
2023-03-07T10:50:31.242Z,58.94
2023-03-07T10:53:01.910Z,59.07
2023-03-07T10:55:36.648Z,58.72
2023-03-07T10:58:17.150Z,58.21
2023-03-07T11:00:49.076Z,58.51
2023-03-07T11:03:49.671Z,58.13
2023-03-07T11:06:35.916Z,57.46
2023-03-07T11:09:12.116Z,57.76
2023-03-07T11:11:40.801Z,58.12
2023-03-07T11:14:13.293Z,57.43
2023-03-07T11:16:50.448Z,57.17
2023-03-07T11:19:38.369Z,57.28
2023-03-07T11:22:19.619Z,57.87
2023-03-07T11:24:55.593Z,56.82
2023-03-07T11:27:26.680Z,55.71
2023-03-07T11:30:10.162Z,56.47
2023-03-07T11:32:45.525Z,56.99
2023-03-07T11:35:20.080Z,55.80
2023-03-07T11:37:59.288Z,56.27
2023-03-07T11:40:30.985Z,56.65
2023-03-07T11:43:13.180Z,55.54
2023-03-07T11:45:52.201Z,55.40
2023-03-07T11:48:42.059Z,55.88
2023-03-07T11:51:28.763Z,56.34
2023-03-07T11:54:08.113Z,56.60
2023-03-07T11:56:42.260Z,56.66
2023-03-07T11:59:24.420Z,56.33
2023-03-07T12:01:55.908Z,56.21
2023-03-07T12:04:49.479Z,55.87
2023-03-07T12:07:32.457Z,56.00
2023-03-07T12:10:07.068Z,56.27
2023-03-07T12:12:53.476Z,55.55
2023-03-07T12:15:37.891Z,55.45
2023-03-07T12:18:28.983Z,55.87
2023-03-07T12:21:12.096Z,55.52
2023-03-07T12:23:45.548Z,54.59
2023-03-07T12:26:18.767Z,55.46
2023-03-07T12:28:51.220Z,55.42
2023-03-07T12:31:25.965Z,55.86
2023-03-07T12:34:01.205Z,55.85
2023-03-07T12:36:35.599Z,56.21
2023-03-07T12:39:16.048Z,55.97
2023-03-07T12:41:56.097Z,56.20
2023-03-07T12:44:35.707Z,56.07
2023-03-07T12:47:12.144Z,56.25
2023-03-07T12:49:49.991Z,55.94
2023-03-07T12:52:31.675Z,55.75
2023-03-07T12:55:06.016Z,55.58
2023-03-07T12:57:39.006Z,55.55
2023-03-07T13:00:12.370Z,55.85
2023-03-07T13:02:46.055Z,56.03
2023-03-07T13:05:18.390Z,56.04
2023-03-07T13:07:48.945Z,56.39
2023-03-07T13:10:21.027Z,56.82
2023-03-07T13:12:49.901Z,56.44
2023-03-07T13:15:48.352Z,56.74
2023-03-07T13:18:28.541Z,56.99
2023-03-07T13:21:33.903Z,56.78
2023-03-07T13:24:38.819Z,56.72
2023-03-07T13:27:16.585Z,57.11
2023-03-07T13:30:04.114Z,57.23
2023-03-07T13:33:03.197Z,57.40
2023-03-07T13:35:57.897Z,57.35
2023-03-07T13:38:34.309Z,57.55
2023-03-07T13:41:04.759Z,57.38
2023-03-07T13:43:49.709Z,57.67
2023-03-07T13:46:49.334Z,57.29
2023-03-07T13:49:46.590Z,57.09
2023-03-07T13:52:31.252Z,57.11
2023-03-07T13:55:02.245Z,57.17
2023-03-07T13:57:41.926Z,56.89
2023-03-07T14:00:25.938Z,56.87
2023-03-07T14:02:55.016Z,56.65
2023-03-07T14:05:24.384Z,56.75
2023-03-07T14:07:53.528Z,56.53
2023-03-07T14:10:25.658Z,56.24
2023-03-07T14:13:18.656Z,56.05
2023-03-07T14:16:00.657Z,56.25
2023-03-07T14:18:44.732Z,56.64
2023-03-07T14:21:17.272Z,55.70
2023-03-07T14:24:03.065Z,55.90
2023-03-07T14:26:37.152Z,55.16
2023-03-07T14:29:17.905Z,54.36
2023-03-07T14:31:47.706Z,55.59
2023-03-07T14:34:26.621Z,55.71
2023-03-07T14:36:57.471Z,55.15
2023-03-07T14:39:31.076Z,54.78
2023-03-07T14:42:07.296Z,55.17
2023-03-07T14:44:53.785Z,54.99
2023-03-07T14:47:37.364Z,55.37
2023-03-07T14:50:14.648Z,55.29
2023-03-07T14:52:43.810Z,55.28
2023-03-07T14:55:20.160Z,54.16
2023-03-07T14:57:53.076Z,54.95
2023-03-07T15:00:28.470Z,54.61
2023-03-07T15:02:58.578Z,54.75
2023-03-07T15:05:29.011Z,54.82
2023-03-07T15:07:57.456Z,53.93
2023-03-07T15:10:30.354Z,54.21
2023-03-07T15:12:59.404Z,54.49
2023-03-07T15:15:34.683Z,53.73
2023-03-07T15:18:08.164Z,53.57
2023-03-07T15:20:36.695Z,53.87
2023-03-07T15:23:07.946Z,53.51
2023-03-07T15:25:39.073Z,52.83
2023-03-07T15:28:17.099Z,53.31
2023-03-07T15:30:51.041Z,53.15
2023-03-07T15:33:26.189Z,53.21
2023-03-07T15:36:18.407Z,53.44
2023-03-07T15:38:48.342Z,53.62
2023-03-07T15:41:31.992Z,53.30
2023-03-07T15:44:19.923Z,52.85
2023-03-07T15:46:52.808Z,53.00
2023-03-07T15:49:26.194Z,53.26
2023-03-07T15:51:57.402Z,53.57
2023-03-07T15:54:33.605Z,53.52
2023-03-07T15:57:04.877Z,53.77
2023-03-07T15:59:37.017Z,53.69
2023-03-07T16:02:35.027Z,53.76
2023-03-07T16:05:05.890Z,53.68
2023-03-07T16:07:34.522Z,53.96
2023-03-07T16:10:02.806Z,53.48
2023-03-07T16:12:31.524Z,53.92
2023-03-07T16:15:03.481Z,53.81
2023-03-07T16:17:37.507Z,53.77
2023-03-07T16:20:14.768Z,54.01
2023-03-07T16:22:44.428Z,54.14
2023-03-07T16:25:13.206Z,54.51
2023-03-07T16:27:42.602Z,54.36
2023-03-07T16:30:15.856Z,54.82
2023-03-07T16:32:45.874Z,55.14
2023-03-07T16:35:17.085Z,55.54
2023-03-07T16:37:45.600Z,55.35
2023-03-07T16:40:16.214Z,55.32
2023-03-07T16:42:45.912Z,55.83
2023-03-07T16:45:23.384Z,56.16
2023-03-07T16:47:55.167Z,56.66
2023-03-07T16:50:25.769Z,56.78
2023-03-07T16:52:54.173Z,56.78
2023-03-07T16:55:23.539Z,57.26
2023-03-07T16:57:55.107Z,57.41
2023-03-07T17:00:26.059Z,57.49
2023-03-07T17:02:58.938Z,57.55
2023-03-07T17:05:29.192Z,57.99
2023-03-07T17:07:58.742Z,57.92
2023-03-07T17:10:28.583Z,58.06
2023-03-07T17:12:58.153Z,57.98
2023-03-07T17:15:31.282Z,57.65
2023-03-07T17:18:02.016Z,58.34
2023-03-07T17:20:30.459Z,58.50
2023-03-07T17:22:58.849Z,58.72
2023-03-07T17:25:28.556Z,58.61
2023-03-07T17:28:01.114Z,58.70
2023-03-07T17:30:31.116Z,58.56
2023-03-07T17:33:01.281Z,59.28
2023-03-07T17:35:30.779Z,58.92
2023-03-07T17:37:59.346Z,58.55
2023-03-07T17:40:27.954Z,59.43
2023-03-07T17:42:57.914Z,59.18
2023-03-07T17:45:27.232Z,59.22
2023-03-07T17:47:56.289Z,59.35
2023-03-07T17:50:26.103Z,59.31
2023-03-07T17:52:56.172Z,59.33
2023-03-07T17:55:26.213Z,58.94
2023-03-07T17:57:54.701Z,59.38
2023-03-07T18:00:23.988Z,59.71
2023-03-07T18:02:52.758Z,59.50
2023-03-07T18:05:21.174Z,59.38
2023-03-07T18:07:52.741Z,59.25
2023-03-07T18:10:21.372Z,59.13
2023-03-07T18:12:53.480Z,58.53
2023-03-07T18:15:23.253Z,58.38
2023-03-07T18:17:51.994Z,58.32
2023-03-07T18:20:22.421Z,58.91
2023-03-07T18:22:52.288Z,58.70
2023-03-07T18:25:20.779Z,58.68
2023-03-07T18:27:50.117Z,58.86
2023-03-07T18:30:19.120Z,59.07
2023-03-07T18:32:47.572Z,59.20
2023-03-07T18:35:16.857Z,58.76
2023-03-07T18:37:45.636Z,59.01
2023-03-07T18:40:15.776Z,58.83
2023-03-07T18:42:44.111Z,58.96
2023-03-07T18:45:13.297Z,59.15
2023-03-07T18:47:41.612Z,59.19
2023-03-07T18:50:11.785Z,59.49
2023-03-07T18:52:40.220Z,59.79
2023-03-07T18:55:09.040Z,59.70
2023-03-07T18:57:38.849Z,59.64
2023-03-07T19:00:10.296Z,59.24
2023-03-07T19:02:39.586Z,59.50
2023-03-07T19:05:08.926Z,59.88
2023-03-07T19:07:37.187Z,59.40
2023-03-07T19:10:06.426Z,59.98
2023-03-07T19:12:34.706Z,60.59
2023-03-07T19:15:04.849Z,60.36
2023-03-07T19:17:33.254Z,60.12
2023-03-07T19:20:01.516Z,60.36
2023-03-07T19:22:31.113Z,60.45
2023-03-07T19:24:59.449Z,60.48
2023-03-07T19:27:28.275Z,60.40
2023-03-07T19:29:56.591Z,60.90
2023-03-07T19:32:27.324Z,60.75
2023-03-07T19:34:55.995Z,60.81
2023-03-07T19:37:24.899Z,60.26
2023-03-07T19:39:54.320Z,59.95
2023-03-07T19:42:23.040Z,59.81
2023-03-07T19:44:51.357Z,60.13
2023-03-07T19:47:19.616Z,60.13
2023-03-07T19:49:49.321Z,60.58
2023-03-07T19:52:17.668Z,61.03
2023-03-07T19:54:46.640Z,60.98
2023-03-07T19:57:16.381Z,61.04
2023-03-07T19:59:44.810Z,61.56
2023-03-07T20:02:15.032Z,61.72
2023-03-07T20:04:43.328Z,61.73
2023-03-07T20:07:12.990Z,61.64
2023-03-07T20:09:41.325Z,61.98
2023-03-07T20:12:11.193Z,62.04
2023-03-07T20:14:42.948Z,62.30
2023-03-07T20:17:12.176Z,61.82
2023-03-07T20:19:40.589Z,62.24
2023-03-07T20:22:08.930Z,61.68
2023-03-07T20:24:38.608Z,61.92
2023-03-07T20:27:07.041Z,62.28
2023-03-07T20:29:35.304Z,62.35
2023-03-07T20:32:03.708Z,62.87
2023-03-07T20:34:32.027Z,62.93
2023-03-07T20:37:00.418Z,62.88
2023-03-07T20:39:28.661Z,62.76
2023-03-07T20:41:58.445Z,63.15
2023-03-07T20:44:26.688Z,62.93
2023-03-07T20:46:55.844Z,63.14
2023-03-07T20:49:24.475Z,63.25
2023-03-07T20:51:52.785Z,63.59
2023-03-07T20:54:21.193Z,63.98
2023-03-07T20:56:49.587Z,63.94
2023-03-07T20:59:20.455Z,64.18
2023-03-07T21:01:49.261Z,64.20
2023-03-07T21:04:20.710Z,64.12
2023-03-07T21:06:50.214Z,64.15
2023-03-07T21:09:19.821Z,64.47
2023-03-07T21:11:50.347Z,64.02
2023-03-07T21:14:21.349Z,64.06
2023-03-07T21:16:49.663Z,63.91
2023-03-07T21:19:17.974Z,63.85
2023-03-07T21:21:46.354Z,63.80
2023-03-07T21:24:15.799Z,64.18
2023-03-07T21:26:44.339Z,63.91
2023-03-07T21:29:14.175Z,64.10
2023-03-07T21:31:44.175Z,63.95
2023-03-07T21:34:15.285Z,64.02
2023-03-07T21:36:43.829Z,64.35
2023-03-07T21:39:12.845Z,64.21
2023-03-07T21:41:41.371Z,64.51
2023-03-07T21:44:10.953Z,64.25
2023-03-07T21:46:39.867Z,64.09
2023-03-07T21:49:09.675Z,63.83
2023-03-07T21:51:38.030Z,63.82
2023-03-07T21:54:06.660Z,63.79
2023-03-07T21:56:35.290Z,63.84
2023-03-07T21:59:03.661Z,63.70
2023-03-07T22:01:32.165Z,63.78
2023-03-07T22:04:00.953Z,63.99
2023-03-07T22:06:30.794Z,64.28
2023-03-07T22:09:00.487Z,64.67
2023-03-07T22:11:29.245Z,64.61
2023-03-07T22:13:57.524Z,64.60
2023-03-07T22:16:26.003Z,64.37
2023-03-07T22:18:55.517Z,64.31
2023-03-07T22:21:26.198Z,64.17
2023-03-07T22:23:58.473Z,64.24
2023-03-07T22:26:27.592Z,64.24
2023-03-07T22:28:56.394Z,64.30
2023-03-07T22:31:24.855Z,63.89
2023-03-07T22:33:53.330Z,63.77
2023-03-07T22:36:22.115Z,64.05
2023-03-07T22:38:56.767Z,63.60
2023-03-07T22:41:26.642Z,63.99
2023-03-07T22:43:55.374Z,63.74
2023-03-07T22:46:23.885Z,63.79
2023-03-07T22:48:56.065Z,63.53
2023-03-07T22:51:26.150Z,63.82
2023-03-07T22:53:56.149Z,63.67
2023-03-07T22:56:25.958Z,64.00
2023-03-07T22:58:54.920Z,64.03
2023-03-07T23:01:25.116Z,64.29
2023-03-07T23:03:55.478Z,63.96
2023-03-07T23:06:25.072Z,63.97
2023-03-07T23:08:55.669Z,63.84
2023-03-07T23:11:25.446Z,63.71
2023-03-07T23:13:54.496Z,63.82
2023-03-07T23:16:25.175Z,63.90
2023-03-07T23:18:55.052Z,63.86
2023-03-07T23:21:26.160Z,63.49
2023-03-07T23:23:56.966Z,63.58
2023-03-07T23:26:26.939Z,63.29
2023-03-07T23:28:55.622Z,63.56
2023-03-07T23:31:25.728Z,63.83
2023-03-07T23:33:56.676Z,63.74
2023-03-07T23:36:26.096Z,63.57
2023-03-07T23:38:55.880Z,63.49
2023-03-07T23:41:24.269Z,63.76
2023-03-07T23:43:52.928Z,63.47
2023-03-07T23:46:21.646Z,63.66
2023-03-07T23:48:49.997Z,63.55
2023-03-07T23:51:19.093Z,63.29
2023-03-07T23:53:47.353Z,63.40
2023-03-07T23:56:17.136Z,63.29
2023-03-07T23:58:47.677Z,63.28
